KBNL/BNL METAR and TAF weather

Enter ICAO airport designator
Station Type Date Time Source
KBNL METAR 2019/05/25 08:55 UTC NOAA

KBNL 250855Z AUTO 00000KT 10SM FEW039 BKN049 OVC060 22/20 A3007 RMK AO2


Station Type Date Time Source
KBNL Decoded METAR 2019/05/25 08:55 UTC NOAA

Station name not available
May 25, 2019 - 04:55 AM EDT / 2019.05.25 0855 UTC
Wind: Calm:0
Visibility: 10 mile(s):0
Sky conditions: overcast
Temperature: 71 F (22 C)
Dew Point: 68 F (20 C)
Relative Humidity: 88%
Pressure (altimeter): 30.07 in. Hg (1018 hPa)
ob: KBNL 250855Z AUTO 00000KT 10SM FEW039 BKN049 OVC060 22/20 A3007 RMK AO2
cycle: 9

Station Type Date Time Source
KBNL TAF UTC NOAA

Error!

Example: see airport list